Time;durP1;ratioP1;P1;durP2;ratioP2;P2;SDS_P1;SDS_P2;PMS_P1;PMS_P2;Temp;Humidity;BMP_temperature;BMP_pressure;BME280_temperature;BME280_humidity;BME280_pressure;Samples;Min_cycle;Max_cycle;Signal;HPM_P1;HPM_P2
2021/01/29 00:02:20;;;;;;;82.72;12.38;;;11.60;99.90;;;;;;5067692;28;20047;-82
2021/01/29 00:04:46;;;;;;;75.65;10.75;;;11.60;99.90;;;;;;5065133;28;20055;-82
2021/01/29 00:07:13;;;;;;;79.93;11.73;;;11.60;99.90;;;;;;5066367;28;20109;-82
2021/01/29 00:09:40;;;;;;;91.20;11.88;;;11.60;99.90;;;;;;5065708;28;20109;-82
2021/01/29 00:12:07;;;;;;;75.70;10.25;;;11.50;99.90;;;;;;5037825;28;20139;-82
2021/01/29 00:14:33;;;;;;;81.50;10.75;;;11.60;99.90;;;;;;5034999;28;20053;-82
2021/01/29 00:17:00;;;;;;;73.03;11.07;;;11.50;99.90;;;;;;5064800;28;20508;-82
2021/01/29 00:19:27;;;;;;;74.60;11.07;;;11.60;99.90;;;;;;5027261;28;20056;-82
2021/01/29 00:21:53;;;;;;;69.30;9.13;;;11.50;99.90;;;;;;5025698;28;20107;-82
2021/01/29 00:24:20;;;;;;;83.15;11.15;;;11.50;99.90;;;;;;5048461;28;20049;-82
2021/01/29 00:26:46;;;;;;;79.32;10.10;;;11.50;99.90;;;;;;5065974;28;20506;-82
2021/01/29 00:29:12;;;;;;;83.55;12.10;;;11.50;99.90;;;;;;5053891;28;20049;-82
2021/01/29 00:31:39;;;;;;;95.40;11.20;;;11.50;99.90;;;;;;5058016;28;20045;-82
2021/01/29 00:34:05;;;;;;;66.95;10.88;;;11.50;99.90;;;;;;5032256;28;20074;-82
2021/01/29 00:36:32;;;;;;;78.18;12.05;;;11.50;99.90;;;;;;5045812;28;20109;-82
2021/01/29 00:38:58;;;;;;;77.03;10.40;;;11.40;99.90;;;;;;5065230;28;20037;-82
2021/01/29 00:41:25;;;;;;;83.53;12.40;;;11.40;99.90;;;;;;5063954;28;20062;-82
2021/01/29 00:43:51;;;;;;;67.20;9.60;;;11.40;99.90;;;;;;5056999;28;20057;-82
2021/01/29 00:46:18;;;;;;;80.22;11.75;;;11.40;99.90;;;;;;5045161;28;20450;-82
2021/01/29 00:48:46;;;;;;;78.78;9.65;;;11.40;99.90;;;;;;5065454;28;20110;-81
2021/01/29 00:51:12;;;;;;;85.57;11.10;;;11.40;99.90;;;;;;5052599;28;20125;-82
2021/01/29 00:53:39;;;;;;;75.32;10.27;;;11.40;99.90;;;;;;5049474;28;20049;-82
2021/01/29 00:56:06;;;;;;;83.22;9.80;;;11.40;99.90;;;;;;5065334;28;20556;-82
2021/01/29 00:58:33;;;;;;;79.50;10.90;;;11.40;99.90;;;;;;5051276;28;20414;-82
2021/01/29 01:01:00;;;;;;;80.22;10.15;;;11.40;99.90;;;;;;5046279;28;20044;-82
2021/01/29 01:03:28;;;;;;;65.82;9.50;;;11.40;99.90;;;;;;5038168;28;20045;-82
2021/01/29 01:05:55;;;;;;;78.15;10.18;;;11.40;99.90;;;;;;5043769;28;20059;-82
2021/01/29 01:08:21;;;;;;;68.65;11.18;;;11.30;99.90;;;;;;5064559;28;20348;-82
2021/01/29 01:10:48;;;;;;;69.15;9.02;;;11.40;99.90;;;;;;5062074;28;20094;-82
2021/01/29 01:13:16;;;;;;;81.60;10.55;;;11.40;99.90;;;;;;5043723;28;20041;-82
2021/01/29 01:15:42;;;;;;;74.00;10.95;;;11.30;99.90;;;;;;5056731;28;20051;-82
2021/01/29 01:18:09;;;;;;;67.50;9.05;;;11.30;99.90;;;;;;5045907;28;20426;-82
2021/01/29 01:20:36;;;;;;;73.90;9.82;;;11.30;99.90;;;;;;5049225;28;20045;-83
2021/01/29 01:23:03;;;;;;;77.57;10.02;;;11.30;99.90;;;;;;5054302;28;20119;-83
2021/01/29 01:25:30;;;;;;;66.63;9.70;;;11.30;99.90;;;;;;5032224;28;20482;-82
2021/01/29 01:27:57;;;;;;;78.00;10.63;;;11.30;99.90;;;;;;5043519;28;20041;-82
2021/01/29 01:30:28;;;;;;;69.07;9.82;;;11.30;99.90;;;;;;5047537;28;20040;-82
2021/01/29 01:32:55;;;;;;;69.20;10.77;;;11.30;99.90;;;;;;5061681;28;20045;-82
2021/01/29 01:35:22;;;;;;;58.42;9.95;;;11.30;99.90;;;;;;5039647;28;20059;-81
2021/01/29 01:37:50;;;;;;;64.78;9.90;;;11.30;99.90;;;;;;5038808;28;20098;-82
2021/01/29 01:40:19;;;;;;;67.15;9.00;;;11.20;99.90;;;;;;5039428;28;20139;-82
2021/01/29 01:42:45;;;;;;;65.97;9.27;;;11.20;99.90;;;;;;5066692;28;20064;-82
2021/01/29 01:45:27;;;;;;;58.35;7.75;;;11.20;99.90;;;;;;5049945;28;20047;-82
2021/01/29 01:48:10;;;;;;;60.45;8.52;;;11.20;99.90;;;;;;5056425;28;20058;-82
2021/01/29 01:50:39;;;;;;;66.07;7.72;;;11.20;99.90;;;;;;5040205;28;20044;-82
2021/01/29 01:53:20;;;;;;;61.22;8.77;;;11.20;99.90;;;;;;5035982;28;20057;-82
2021/01/29 01:55:53;;;;;;;64.65;8.48;;;11.10;99.90;;;;;;5046585;28;20392;-82
2021/01/29 01:58:20;;;;;;;65.70;9.75;;;11.20;99.90;;;;;;5047910;28;20474;-82
2021/01/29 02:00:46;;;;;;;66.57;9.05;;;11.20;99.90;;;;;;5049204;28;20083;-82
2021/01/29 02:03:19;;;;;;;70.53;9.55;;;11.20;99.90;;;;;;5045440;28;20372;-82
2021/01/29 02:05:46;;;;;;;79.13;10.23;;;11.20;99.90;;;;;;5050136;28;20134;-82
2021/01/29 02:08:15;;;;;;;69.18;8.60;;;11.20;99.90;;;;;;5046465;28;20049;-82
2021/01/29 02:10:42;;;;;;;70.70;9.82;;;11.20;99.90;;;;;;5048544;28;20041;-82
2021/01/29 02:13:09;;;;;;;69.90;8.98;;;11.20;99.90;;;;;;5041704;28;20422;-82
2021/01/29 02:15:47;;;;;;;62.58;9.20;;;11.20;99.90;;;;;;5045640;28;20069;-82
2021/01/29 02:18:32;;;;;;;63.88;9.68;;;11.20;99.90;;;;;;5048708;28;20056;-82
2021/01/29 02:21:05;;;;;;;71.90;9.40;;;11.20;99.90;;;;;;5031791;28;20103;-82
2021/01/29 02:23:49;;;;;;;67.10;9.25;;;11.20;99.90;;;;;;5031195;28;20498;-81
2021/01/29 02:26:46;;;;;;;62.90;9.80;;;11.20;99.90;;;;;;5040510;28;20433;-83
2021/01/29 02:29:18;;;;;;;82.13;10.90;;;11.20;99.90;;;;;;5055172;28;20107;-82
2021/01/29 02:31:45;;;;;;;80.93;10.77;;;11.20;99.90;;;;;;5019565;28;20050;-82
2021/01/29 02:34:43;;;;;;;61.13;8.85;;;11.20;99.90;;;;;;5020429;28;20077;-82
2021/01/29 02:37:12;;;;;;;78.97;11.07;;;11.20;99.90;;;;;;5023872;28;20045;-83
2021/01/29 02:39:39;;;;;;;76.18;10.68;;;11.20;99.90;;;;;;5048030;28;20071;-82
2021/01/29 02:42:14;;;;;;;66.85;8.40;;;11.20;99.90;;;;;;5048713;28;20449;-82
2021/01/29 02:45:00;;;;;;;64.35;9.65;;;11.20;99.90;;;;;;5054983;28;20099;-82
2021/01/29 02:47:29;;;;;;;68.95;9.13;;;11.20;99.90;;;;;;5035859;28;20057;-82
2021/01/29 02:50:20;;;;;;;72.95;9.10;;;11.20;99.90;;;;;;5047724;28;20567;-82
2021/01/29 02:53:02;;;;;;;63.92;10.07;;;11.20;99.90;;;;;;5061610;28;20098;-82
2021/01/29 02:55:37;;;;;;;76.15;9.52;;;11.20;99.90;;;;;;5047632;28;20682;-82
2021/01/29 02:58:17;;;;;;;66.53;9.52;;;11.20;99.90;;;;;;5066023;28;20048;-82
2021/01/29 03:01:13;;;;;;;67.82;9.05;;;11.20;99.90;;;;;;5067824;28;20052;-82
2021/01/29 03:03:42;;;;;;;61.35;9.18;;;11.20;99.90;;;;;;5051609;28;20564;-82
2021/01/29 03:06:20;;;;;;;61.63;9.48;;;11.20;99.90;;;;;;5051700;28;20048;-82
2021/01/29 03:08:57;;;;;;;77.30;9.25;;;11.20;99.90;;;;;;5067788;28;20119;-82
2021/01/29 03:11:41;;;;;;;73.25;9.82;;;11.20;99.90;;;;;;5071585;28;20073;-82
2021/01/29 03:14:20;;;;;;;84.10;9.48;;;11.20;99.90;;;;;;5051242;28;20375;-82
2021/01/29 03:17:23;;;;;;;73.72;9.98;;;11.20;99.90;;;;;;5048791;28;20053;-82
2021/01/29 03:19:56;;;;;;;70.65;8.95;;;11.20;99.90;;;;;;5044901;28;20060;-82
2021/01/29 03:22:28;;;;;;;72.95;10.07;;;11.20;99.90;;;;;;5036970;28;20090;-82
2021/01/29 03:25:00;;;;;;;67.70;8.57;;;11.20;99.90;;;;;;5065998;28;20502;-82
2021/01/29 03:27:40;;;;;;;71.15;9.85;;;11.20;99.90;;;;;;5038619;28;20086;-81
2021/01/29 03:30:12;;;;;;;63.78;8.60;;;11.20;99.90;;;;;;5051454;28;20110;-82
2021/01/29 03:32:41;;;;;;;63.78;9.52;;;11.20;99.90;;;;;;5048213;28;20053;-82
2021/01/29 03:35:16;;;;;;;62.38;9.45;;;11.20;99.90;;;;;;5051385;28;20124;-82
2021/01/29 03:38:08;;;;;;;68.38;9.95;;;11.20;99.90;;;;;;5049427;28;20106;-82
2021/01/29 03:40:40;;;;;;;67.25;9.75;;;11.20;99.90;;;;;;5047758;28;20048;-82
2021/01/29 03:43:16;;;;;;;63.92;9.77;;;11.20;99.90;;;;;;5049081;28;20044;-82
2021/01/29 03:45:53;;;;;;;72.03;10.45;;;11.20;99.90;;;;;;5062478;28;20045;-82
2021/01/29 03:48:49;;;;;;;75.65;9.63;;;11.30;99.90;;;;;;5052888;28;20422;-82
2021/01/29 03:51:28;;;;;;;65.72;9.00;;;11.30;99.90;;;;;;5043079;28;20052;-82
2021/01/29 03:54:21;;;;;;;79.13;8.75;;;11.20;99.90;;;;;;5054392;28;20057;-82
2021/01/29 03:57:06;;;;;;;71.65;9.50;;;11.20;99.90;;;;;;5049823;28;20386;-82
2021/01/29 03:59:46;;;;;;;81.57;9.68;;;11.30;99.90;;;;;;5055232;28;20067;-82
2021/01/29 04:02:27;;;;;;;57.78;8.77;;;11.30;99.90;;;;;;5058355;28;20041;-82
2021/01/29 04:05:19;;;;;;;71.50;8.77;;;11.20;99.90;;;;;;5052062;28;20178;-82
2021/01/29 04:08:03;;;;;;;76.07;10.38;;;11.30;99.90;;;;;;5044449;28;20052;-82
2021/01/29 04:10:32;;;;;;;75.60;10.25;;;11.30;99.90;;;;;;5047358;28;20406;-82
2021/01/29 04:13:21;;;;;;;64.15;9.38;;;11.30;99.90;;;;;;5046533;28;20044;-82
2021/01/29 04:15:50;;;;;;;82.05;10.40;;;11.30;99.90;;;;;;5059775;28;20063;-82
2021/01/29 04:18:43;;;;;;;78.55;10.25;;;11.20;99.90;;;;;;5052710;28;20056;-83
2021/01/29 04:21:19;;;;;;;56.90;8.85;;;11.20;99.90;;;;;;5053245;28;20040;-82
2021/01/29 04:23:56;;;;;;;59.03;10.32;;;11.20;99.90;;;;;;5066562;28;20053;-82
2021/01/29 04:26:29;;;;;;;61.15;8.73;;;11.20;99.90;;;;;;5069598;28;20478;-82
2021/01/29 04:29:01;;;;;;;67.30;9.52;;;11.20;99.90;;;;;;5061294;28;20055;-82
2021/01/29 04:31:29;;;;;;;60.78;9.18;;;11.20;99.90;;;;;;5062597;28;20053;-82
2021/01/29 04:34:08;;;;;;;54.75;7.97;;;11.20;99.90;;;;;;5061963;28;20056;-82
2021/01/29 04:36:36;;;;;;;59.42;7.80;;;11.20;99.90;;;;;;5054545;28;20040;-82
2021/01/29 04:39:10;;;;;;;;;;;11.20;99.90;;;;;;5055251;28;20113;-82
2021/01/29 04:41:54;;;;;;;66.88;9.00;;;11.20;99.90;;;;;;5055679;28;19921;-82
2021/01/29 04:44:47;;;;;;;65.18;9.15;;;11.20;99.90;;;;;;5034315;28;20072;-82
2021/01/29 04:47:36;;;;;;;77.82;9.80;;;11.20;99.90;;;;;;5069266;28;20056;-82
2021/01/29 04:50:19;;;;;;;66.75;9.02;;;11.20;99.90;;;;;;5068402;28;20380;-82
2021/01/29 04:53:01;;;;;;;54.15;8.70;;;11.30;99.90;;;;;;5057207;28;20045;-82
2021/01/29 04:55:30;;;;;;;71.18;9.75;;;11.20;99.90;;;;;;5071030;28;20071;-82
2021/01/29 04:58:22;;;;;;;63.45;8.90;;;11.20;99.90;;;;;;5053706;28;20111;-82
2021/01/29 05:01:35;;;;;;;63.70;9.40;;;11.20;99.90;;;;;;5059384;28;20047;-82
2021/01/29 05:04:19;;;;;;;66.05;10.52;;;11.30;99.90;;;;;;5056977;28;20044;-82
2021/01/29 05:06:52;;;;;;;63.63;7.95;;;11.20;99.90;;;;;;5045067;28;20044;-82
2021/01/29 05:09:52;;;;;;;65.63;9.30;;;11.20;99.90;;;;;;5061265;28;20048;-82
2021/01/29 05:12:55;;;;;;;63.03;9.73;;;11.20;99.90;;;;;;5060821;28;20055;-82
2021/01/29 05:16:03;;;;;;;58.67;8.63;;;11.20;99.90;;;;;;5064527;28;20175;-82
2021/01/29 05:18:51;;;;;;;59.60;9.48;;;11.20;99.90;;;;;;5053661;28;20131;-82
2021/01/29 05:21:59;;;;;;;76.15;9.65;;;11.20;99.90;;;;;;5068470;28;20052;-82
2021/01/29 05:24:58;;;;;;;59.85;7.90;;;11.20;99.90;;;;;;4983906;28;20046;-82
2021/01/29 05:27:43;;;;;;;57.28;8.90;;;11.20;99.90;;;;;;4971582;28;20046;-82
2021/01/29 05:30:28;;;;;;;67.45;8.57;;;11.20;99.90;;;;;;5004721;28;20054;-82
2021/01/29 05:33:21;;;;;;;61.47;8.27;;;11.20;99.90;;;;;;4990811;28;20388;-82
2021/01/29 05:36:10;;;;;;;61.00;9.27;;;11.20;99.90;;;;;;4991118;28;20436;-82
2021/01/29 05:39:06;;;;;;;66.30;8.88;;;11.20;99.90;;;;;;4984813;28;20058;-82
2021/01/29 05:41:57;;;;;;;53.55;8.73;;;11.20;99.90;;;;;;4985658;28;20050;-82
2021/01/29 05:44:45;;;;;;;62.15;8.57;;;11.20;99.90;;;;;;4981273;28;20496;-82
2021/01/29 05:48:08;;;;;;;68.47;9.02;;;11.20;99.90;;;;;;4993029;28;20476;-82
2021/01/29 05:50:53;;;;;;;69.75;9.40;;;11.20;99.90;;;;;;4931179;28;20055;-82
2021/01/29 05:53:31;;;;;;;67.15;8.88;;;11.20;99.90;;;;;;4931839;28;20481;-82
2021/01/29 05:56:01;;;;;;;68.18;9.20;;;11.20;99.90;;;;;;4949911;28;20118;-82
2021/01/29 05:58:46;;;;;;;69.03;9.00;;;11.20;99.90;;;;;;4948111;28;20083;-82
2021/01/29 06:01:53;;;;;;;70.28;8.57;;;11.20;99.90;;;;;;4957456;28;20046;-82
2021/01/29 06:04:56;;;;;;;66.40;10.57;;;11.10;99.90;;;;;;4962857;28;20652;-82
2021/01/29 06:07:46;;;;;;;60.47;9.40;;;11.10;99.90;;;;;;4938274;28;20055;-82
2021/01/29 06:10:45;;;;;;;73.25;9.52;;;11.10;99.90;;;;;;4944641;28;20047;-82
2021/01/29 06:13:30;;;;;;;67.57;9.90;;;11.20;99.90;;;;;;4933121;28;20047;-82
2021/01/29 06:16:36;;;;;;;68.43;10.05;;;11.20;99.90;;;;;;4948434;28;20069;-82
2021/01/29 06:19:49;;;;;;;56.58;8.82;;;11.20;99.90;;;;;;4878617;29;20396;-83
2021/01/29 06:22:51;;;;;;;67.05;8.50;;;11.20;99.90;;;;;;4799766;29;20062;-81
2021/01/29 06:25:23;;;;;;;67.82;10.43;;;11.20;99.90;;;;;;4803898;29;20050;-81
2021/01/29 06:28:16;;;;;;;61.92;9.10;;;11.20;99.90;;;;;;4805280;29;20059;-81
2021/01/29 06:31:00;;;;;;;64.18;7.97;;;11.20;99.90;;;;;;4802997;29;20051;-82
2021/01/29 06:33:41;;;;;;;60.38;8.35;;;11.20;99.90;;;;;;4815374;29;20107;-82
2021/01/29 06:36:16;;;;;;;55.83;8.43;;;11.20;99.90;;;;;;4802648;29;20111;-81
2021/01/29 06:38:57;;;;;;;60.42;8.45;;;11.20;99.90;;;;;;4825913;29;20118;-81
2021/01/29 06:41:43;;;;;;;65.50;9.45;;;11.10;99.90;;;;;;4831771;29;20498;-82
2021/01/29 06:44:25;;;;;;;53.92;8.88;;;11.10;99.90;;;;;;4837901;29;20054;-82
2021/01/29 06:47:18;;;;;;;67.07;10.13;;;11.10;99.90;;;;;;4835350;29;20534;-82
2021/01/29 06:50:13;;;;;;;61.67;8.95;;;11.10;99.90;;;;;;4846430;29;20411;-82
2021/01/29 06:53:06;;;;;;;68.28;9.25;;;11.10;99.90;;;;;;4915338;28;20055;-82
2021/01/29 06:55:49;;;;;;;60.90;8.63;;;11.10;99.90;;;;;;4981186;28;20116;-82
2021/01/29 06:58:45;;;;;;;54.95;8.27;;;11.10;99.90;;;;;;5043259;28;20048;-82
2021/01/29 07:01:24;;;;;;;74.40;9.15;;;11.10;99.90;;;;;;5046239;28;20136;-82
2021/01/29 07:04:26;;;;;;;72.10;9.68;;;11.10;99.90;;;;;;5047617;28;20102;-82
2021/01/29 07:07:21;;;;;;;62.90;9.43;;;11.10;99.90;;;;;;5061460;28;20053;-82
2021/01/29 07:10:09;;;;;;;66.80;8.80;;;11.10;99.90;;;;;;5061283;28;20159;-82
2021/01/29 07:12:54;;;;;;;60.60;9.57;;;11.10;99.90;;;;;;5044995;28;20356;-82
2021/01/29 07:15:26;;;;;;;68.68;10.18;;;11.10;99.90;;;;;;5044695;28;20225;-82
2021/01/29 07:18:31;;;;;;;48.33;8.27;;;11.10;99.90;;;;;;5033392;28;20094;-82
2021/01/29 07:21:16;;;;;;;60.33;8.73;;;11.10;99.90;;;;;;5058745;28;20429;-82
2021/01/29 07:24:24;;;;;;;51.67;8.05;;;11.10;99.90;;;;;;5059651;28;20041;-82
2021/01/29 07:27:16;;;;;;;56.72;8.18;;;11.10;99.90;;;;;;4948037;28;20054;-82
2021/01/29 07:30:14;;;;;;;69.15;8.70;;;11.10;99.90;;;;;;4962727;28;20086;-82
2021/01/29 07:32:44;;;;;;;;;;;11.00;99.90;;;;;;4950005;28;20082;-83
2021/01/29 07:35:10;;;;;;;60.65;9.07;;;11.00;99.90;;;;;;4949177;28;19973;-82
2021/01/29 07:37:55;;;;;;;60.80;8.65;;;11.00;99.90;;;;;;4958730;28;20102;-82
2021/01/29 07:40:41;;;;;;;56.88;8.35;;;11.00;99.90;;;;;;4962207;28;20058;-82
2021/01/29 07:43:16;;;;;;;56.83;7.38;;;10.90;99.90;;;;;;4961809;28;20065;-82
2021/01/29 07:45:48;;;;;;;56.75;8.65;;;10.90;99.90;;;;;;4966765;28;20058;-82
2021/01/29 07:48:33;;;;;;;57.13;9.52;;;10.90;99.90;;;;;;4958343;28;20051;-82
2021/01/29 07:51:24;;;;;;;60.10;9.18;;;10.80;99.90;;;;;;4949665;28;20059;-82
2021/01/29 07:54:12;;;;;;;70.85;9.43;;;10.80;99.90;;;;;;4946172;28;21935;-82
2021/01/29 07:56:56;;;;;;;56.60;8.57;;;10.80;99.90;;;;;;4943846;28;20062;-82
2021/01/29 07:59:50;;;;;;;66.03;8.15;;;10.80;99.90;;;;;;5024964;28;20037;-82
2021/01/29 08:02:54;;;;;;;64.70;9.20;;;10.80;99.90;;;;;;5052707;28;20053;-82
2021/01/29 08:05:28;;;;;;;62.92;9.45;;;10.80;99.90;;;;;;5055755;28;20064;-82
2021/01/29 08:08:22;;;;;;;71.03;9.68;;;10.90;99.90;;;;;;5036775;28;20040;-81
2021/01/29 08:10:53;;;;;;;69.25;9.07;;;10.90;99.90;;;;;;5044126;28;20509;-82
2021/01/29 08:13:32;;;;;;;59.40;8.50;;;10.90;99.90;;;;;;5049278;28;20098;-81
2021/01/29 08:16:01;;;;;;;50.97;8.73;;;11.00;99.90;;;;;;5033505;28;20044;-81
2021/01/29 08:18:49;;;;;;;52.95;8.02;;;10.90;99.90;;;;;;5047913;28;20564;-81
2021/01/29 08:21:41;;;;;;;45.95;7.07;;;11.00;99.90;;;;;;5048523;28;20036;-81
2021/01/29 08:24:26;;;;;;;38.83;6.28;;;10.90;99.90;;;;;;5049626;28;20371;-81
2021/01/29 08:27:05;;;;;;;33.78;5.18;;;10.90;99.90;;;;;;5045492;28;20136;-81
2021/01/29 08:29:52;;;;;;;40.55;6.13;;;10.90;99.90;;;;;;5062657;28;20488;-82
2021/01/29 08:32:27;;;;;;;30.48;5.45;;;10.90;99.90;;;;;;5048490;28;20110;-82
2021/01/29 08:34:59;;;;;;;42.03;5.40;;;10.90;99.90;;;;;;5035875;28;20132;-82
2021/01/29 08:37:41;;;;;;;24.40;5.30;;;10.90;99.90;;;;;;5047088;28;20052;-82
2021/01/29 08:40:28;;;;;;;40.65;6.00;;;10.90;99.90;;;;;;5048858;28;20052;-81
2021/01/29 08:43:13;;;;;;;35.70;6.43;;;10.90;99.90;;;;;;5068489;28;20111;-82
2021/01/29 08:45:40;;;;;;;42.05;5.68;;;10.90;99.90;;;;;;5064747;28;20445;-82
2021/01/29 08:48:27;;;;;;;42.70;6.68;;;10.90;99.90;;;;;;5050960;28;20057;-82
2021/01/29 08:51:08;;;;;;;35.47;6.05;;;10.90;99.90;;;;;;5070557;28;20490;-82
2021/01/29 08:54:08;;;;;;;38.17;5.68;;;11.00;99.90;;;;;;5056379;28;20061;-81
2021/01/29 08:56:40;;;;;;;53.65;7.20;;;11.00;99.90;;;;;;5065409;28;20046;-81
2021/01/29 08:59:08;;;;;;;49.78;7.07;;;11.00;99.90;;;;;;5052255;28;20429;-82
2021/01/29 09:02:01;;;;;;;50.00;6.90;;;11.10;99.90;;;;;;5052226;28;20044;-82
2021/01/29 09:04:50;;;;;;;49.58;7.10;;;11.10;99.90;;;;;;5067018;28;20049;-81
2021/01/29 09:07:30;;;;;;;;;;;11.20;99.90;;;;;;5056468;28;20548;-82
2021/01/29 09:10:25;;;;;;;50.33;7.05;;;11.20;99.90;;;;;;5048952;28;19970;-81
2021/01/29 09:13:00;;;;;;;45.25;7.47;;;11.30;99.90;;;;;;5052330;28;20057;-81
2021/01/29 09:15:54;;;;;;;54.85;8.02;;;11.30;99.90;;;;;;5048860;28;20048;-81
2021/01/29 09:18:23;;;;;;;44.08;7.75;;;11.40;99.90;;;;;;5043288;28;20276;-82
2021/01/29 09:21:03;;;;;;;49.80;7.78;;;11.50;99.90;;;;;;5050548;28;20045;-82
2021/01/29 09:23:45;;;;;;;45.25;7.60;;;11.50;99.90;;;;;;5050744;28;23176;-81
2021/01/29 09:26:33;;;;;;;44.03;7.15;;;11.60;99.90;;;;;;5052302;28;20049;-82
2021/01/29 09:29:15;;;;;;;46.57;7.97;;;11.60;99.90;;;;;;5061882;28;20057;-82
2021/01/29 09:31:44;;;;;;;44.53;7.40;;;11.60;99.90;;;;;;5045825;28;20045;-82
2021/01/29 09:34:26;;;;;;;46.10;7.40;;;11.70;99.90;;;;;;5071764;28;20073;-82
2021/01/29 09:36:56;;;;;;;35.72;6.95;;;11.60;99.90;;;;;;5051409;28;20056;-81
2021/01/29 09:39:54;;;;;;;45.17;6.97;;;11.70;99.90;;;;;;5047673;28;20140;-81
2021/01/29 09:42:26;;;;;;;40.95;6.53;;;11.70;99.90;;;;;;5050606;28;20049;-81
2021/01/29 09:45:03;;;;;;;33.28;6.38;;;11.70;99.90;;;;;;5052399;28;20053;-82
2021/01/29 09:47:42;;;;;;;44.35;6.88;;;11.80;99.90;;;;;;5052234;28;20058;-82
2021/01/29 09:50:23;;;;;;;47.22;6.97;;;11.80;99.90;;;;;;5049619;28;20175;-82
2021/01/29 09:53:06;;;;;;;38.13;6.70;;;11.80;99.90;;;;;;5046387;28;20152;-81
2021/01/29 09:55:57;;;;;;;36.92;6.18;;;11.80;99.90;;;;;;5062113;28;20129;-81
2021/01/29 09:59:01;;;;;;;47.10;6.40;;;11.90;99.90;;;;;;5047348;28;20072;-82
2021/01/29 10:01:47;;;;;;;32.05;6.60;;;11.90;99.90;;;;;;5060300;28;20048;-82
2021/01/29 10:04:49;;;;;;;36.63;6.45;;;11.90;99.90;;;;;;5048875;28;20045;-81
2021/01/29 10:07:20;;;;;;;39.00;6.35;;;11.90;99.90;;;;;;5030390;28;20098;-82
2021/01/29 10:10:00;;;;;;;41.95;6.70;;;12.00;99.90;;;;;;5049501;28;20124;-82
2021/01/29 10:12:29;;;;;;;36.15;6.78;;;12.00;99.90;;;;;;5047042;28;20398;-81
2021/01/29 10:14:57;;;;;;;;;;;12.00;99.90;;;;;;5062530;28;20049;-82
2021/01/29 10:17:33;;;;;;;35.33;6.35;;;12.00;99.90;;;;;;5053792;28;20310;-82
2021/01/29 10:20:19;;;;;;;34.65;5.97;;;12.00;99.90;;;;;;5049823;28;20132;-82
2021/01/29 10:23:18;;;;;;;44.28;7.97;;;12.00;99.90;;;;;;5052693;28;20114;-81
2021/01/29 10:25:56;;;;;;;45.20;8.38;;;12.10;99.90;;;;;;5050708;28;20091;-82
2021/01/29 10:28:51;;;;;;;46.45;8.20;;;12.20;99.90;;;;;;5047406;28;20067;-82
2021/01/29 10:31:21;;;;;;;42.63;9.13;;;12.20;99.90;;;;;;5048465;28;20057;-82
2021/01/29 10:34:00;;;;;;;52.17;8.38;;;12.20;99.90;;;;;;5063783;28;20476;-82
2021/01/29 10:36:34;;;;;;;48.63;7.68;;;12.20;99.90;;;;;;5043534;28;20094;-81
2021/01/29 10:39:14;;;;;;;54.08;8.55;;;12.20;99.90;;;;;;5037294;28;20040;-81
2021/01/29 10:42:15;;;;;;;52.28;7.82;;;12.20;99.90;;;;;;5035669;28;20060;-81
2021/01/29 10:44:43;;;;;;;45.42;6.82;;;12.30;99.90;;;;;;5021310;28;20334;-81
2021/01/29 10:47:17;;;;;;;48.42;7.78;;;12.30;99.90;;;;;;5034564;28;20041;-81
2021/01/29 10:49:57;;;;;;;53.05;6.97;;;12.30;99.90;;;;;;5041844;28;20115;-82
2021/01/29 10:52:38;;;;;;;46.25;7.88;;;12.30;99.90;;;;;;5044843;28;20239;-82
2021/01/29 10:55:23;;;;;;;44.85;7.30;;;12.30;99.90;;;;;;5045512;28;20052;-82
2021/01/29 10:58:12;;;;;;;63.38;8.20;;;12.30;99.90;;;;;;5049349;28;20041;-81
2021/01/29 11:00:40;;;;;;;62.83;7.97;;;12.40;99.90;;;;;;5048616;28;20135;-82
2021/01/29 11:03:17;;;;;;;59.15;8.07;;;12.40;99.90;;;;;;5037705;28;20386;-82
2021/01/29 11:05:47;;;;;;;50.65;6.70;;;12.40;99.90;;;;;;5049134;28;20049;-82
2021/01/29 11:08:16;;;;;;;50.58;7.43;;;12.40;99.90;;;;;;5050945;28;20057;-82
2021/01/29 11:10:50;;;;;;;44.60;7.68;;;12.40;99.90;;;;;;5043064;28;20048;-82
2021/01/29 11:13:43;;;;;;;49.28;7.65;;;12.40;99.90;;;;;;5047885;28;20044;-82
2021/01/29 11:16:12;;;;;;;42.72;6.60;;;12.40;99.90;;;;;;4987983;28;20094;-82
2021/01/29 11:18:38;;;;;;;39.90;6.57;;;12.40;99.90;;;;;;4969561;28;20173;-82
2021/01/29 11:21:37;;;;;;;46.95;7.20;;;12.40;99.90;;;;;;4951834;28;20074;-81
2021/01/29 11:24:09;;;;;;;51.17;6.78;;;12.40;99.90;;;;;;4927062;28;20054;-82
2021/01/29 11:26:47;;;;;;;44.05;6.15;;;12.30;99.90;;;;;;4933364;28;20622;-81
2021/01/29 11:29:30;;;;;;;55.57;7.40;;;12.30;99.90;;;;;;4933758;28;20539;-82
2021/01/29 11:32:18;;;;;;;37.15;6.70;;;12.30;99.90;;;;;;4950150;28;20051;-82
2021/01/29 11:34:46;;;;;;;42.28;7.05;;;12.30;99.90;;;;;;4951733;28;20059;-82
2021/01/29 11:37:21;;;;;;;43.67;6.75;;;12.30;99.90;;;;;;4936561;28;20043;-82
2021/01/29 11:40:12;;;;;;;38.88;6.28;;;12.30;99.90;;;;;;4950409;28;20050;-81
2021/01/29 11:43:00;;;;;;;54.17;7.50;;;12.30;99.90;;;;;;4950233;28;20521;-81
2021/01/29 11:45:30;;;;;;;40.22;6.15;;;12.40;99.90;;;;;;4945713;28;20067;-82
2021/01/29 11:48:13;;;;;;;42.15;5.82;;;12.40;99.90;;;;;;4944831;28;20043;-82
2021/01/29 11:51:11;;;;;;;34.60;6.40;;;12.40;99.90;;;;;;4930511;29;20107;-82
2021/01/29 11:53:51;;;;;;;34.75;6.95;;;12.40;99.90;;;;;;4976576;28;20501;-82
2021/01/29 11:56:37;;;;;;;42.25;6.30;;;12.40;99.90;;;;;;4993618;28;20046;-80
2021/01/29 11:59:21;;;;;;;47.75;7.32;;;12.50;99.90;;;;;;4984716;28;20484;-83
2021/01/29 12:02:02;;;;;;;47.15;6.90;;;12.50;99.90;;;;;;5042437;28;20048;-82
2021/01/29 12:04:37;;;;;;;40.40;6.65;;;12.60;99.90;;;;;;5048593;28;20053;-82
2021/01/29 12:07:08;;;;;;;53.72;8.35;;;12.60;99.90;;;;;;5047937;28;20065;-82
2021/01/29 12:10:01;;;;;;;50.97;7.80;;;12.70;99.90;;;;;;5047024;28;20057;-82
2021/01/29 12:12:36;;;;;;;56.75;9.60;;;12.70;99.90;;;;;;5069421;28;20098;-82
2021/01/29 12:15:12;;;;;;;38.13;6.60;;;12.70;99.90;;;;;;5045156;28;20042;-83
2021/01/29 12:18:00;;;;;;;51.30;7.95;;;12.70;99.90;;;;;;5046391;28;20041;-83
2021/01/29 12:20:30;;;;;;;40.78;6.55;;;12.70;99.90;;;;;;5056327;28;20142;-82
2021/01/29 12:23:06;;;;;;;42.55;6.93;;;12.70;99.90;;;;;;5039500;28;20098;-83
2021/01/29 12:25:41;;;;;;;34.85;6.53;;;12.70;99.90;;;;;;5035909;28;20052;-83
2021/01/29 12:28:27;;;;;;;50.10;8.15;;;12.70;99.90;;;;;;5029937;28;20545;-84
2021/01/29 12:31:03;;;;;;;56.05;7.97;;;12.70;99.90;;;;;;5055247;28;20057;-83
2021/01/29 12:33:41;;;;;;;50.03;7.85;;;12.70;99.90;;;;;;5031899;28;20049;-83
2021/01/29 12:36:12;;;;;;;45.33;7.70;;;12.60;99.90;;;;;;5035404;27;20057;-83
2021/01/29 12:38:45;;;;;;;45.97;6.78;;;12.60;99.90;;;;;;5038697;28;20406;-83
2021/01/29 12:41:28;;;;;;;43.70;7.18;;;12.60;99.90;;;;;;5035733;28;20052;-83
2021/01/29 12:44:23;;;;;;;54.33;8.00;;;12.50;99.90;;;;;;5030389;28;20061;-83
2021/01/29 12:47:22;;;;;;;49.70;7.15;;;12.50;99.90;;;;;;5038109;28;20045;-83
2021/01/29 12:50:02;;;;;;;46.65;7.50;;;12.50;99.90;;;;;;5035403;28;20045;-83
2021/01/29 12:52:38;;;;;;;43.78;6.70;;;12.40;99.90;;;;;;5056897;28;20493;-83
2021/01/29 12:55:13;;;;;;;41.92;5.93;;;12.40;99.90;;;;;;5058919;28;20041;-83
2021/01/29 12:57:40;;;;;;;48.90;7.40;;;12.40;99.90;;;;;;5042849;28;20084;-83
2021/01/29 13:00:19;;;;;;;55.55;8.20;;;12.40;99.90;;;;;;5044263;28;20052;-83
2021/01/29 13:03:22;;;;;;;48.60;7.53;;;12.40;99.90;;;;;;5041238;28;20127;-82
2021/01/29 13:06:09;;;;;;;55.38;8.77;;;12.40;99.90;;;;;;4965592;28;20434;-83
2021/01/29 13:08:43;;;;;;;54.78;7.78;;;12.40;99.90;;;;;;4968926;28;20102;-83
2021/01/29 13:11:42;;;;;;;49.72;7.00;;;12.40;99.90;;;;;;4966466;28;20053;-83
2021/01/29 13:14:16;;;;;;;48.20;6.65;;;12.40;99.90;;;;;;4983785;28;20054;-83
2021/01/29 13:17:03;;;;;;;46.53;7.25;;;12.40;99.90;;;;;;4984307;28;20038;-82
2021/01/29 13:19:36;;;;;;;59.17;9.05;;;12.40;99.90;;;;;;4982327;28;20050;-83
2021/01/29 13:22:17;;;;;;;47.15;7.88;;;12.40;99.90;;;;;;4986095;28;20053;-83
2021/01/29 13:24:44;;;;;;;58.22;7.63;;;12.50;99.90;;;;;;4967104;28;20096;-83
2021/01/29 13:27:15;;;;;;;47.88;6.70;;;12.50;99.90;;;;;;4963063;28;20448;-83
2021/01/29 13:29:41;;;;;;;51.60;7.97;;;12.50;99.90;;;;;;4967180;28;20116;-83
2021/01/29 13:32:36;;;;;;;51.55;6.65;;;12.60;99.90;;;;;;4988133;28;20072;-83
2021/01/29 13:35:08;;;;;;;35.75;6.88;;;12.70;99.90;;;;;;4985772;28;20199;-83
2021/01/29 13:37:36;;;;;;;50.40;7.45;;;12.70;99.90;;;;;;4984649;28;20564;-83
2021/01/29 13:40:25;;;;;;;52.25;7.50;;;12.60;99.90;;;;;;4986166;28;20370;-83
2021/01/29 13:42:54;;;;;;;51.78;8.43;;;12.60;99.90;;;;;;5015396;28;20041;-83